sensor_id;sensor_type;location;lat;lon;timestamp;pressure;altitude;pressure_sealevel;temperature;humidity
16793;BME280;8513;42.662;23.350;2023-01-09T00:00:16;95202.94;;;3.46;58.29
16793;BME280;8513;42.662;23.350;2023-01-09T00:02:42;95198.28;;;3.39;58.75
16793;BME280;8513;42.662;23.350;2023-01-09T00:05:14;95199.91;;;3.01;59.81
16793;BME280;8513;42.662;23.350;2023-01-09T00:07:40;95199.19;;;3.12;59.58
16793;BME280;8513;42.662;23.350;2023-01-09T00:10:06;95199.09;;;3.14;59.44
16793;BME280;8513;42.662;23.350;2023-01-09T00:12:32;95196.28;;;3.17;58.90
16793;BME280;8513;42.662;23.350;2023-01-09T00:14:58;95196.19;;;3.18;58.63
16793;BME280;8513;42.662;23.350;2023-01-09T00:17:23;95190.97;;;3.05;59.36
16793;BME280;8513;42.662;23.350;2023-01-09T00:19:49;95182.97;;;3.08;59.22
16793;BME280;8513;42.662;23.350;2023-01-09T00:22:14;95191.28;;;3.01;59.29
16793;BME280;8513;42.662;23.350;2023-01-09T00:24:40;95182.97;;;3.08;59.26
16793;BME280;8513;42.662;23.350;2023-01-09T00:27:05;95190.47;;;3.13;58.94
16793;BME280;8513;42.662;23.350;2023-01-09T00:29:31;95186.09;;;3.14;58.89
16793;BME280;8513;42.662;23.350;2023-01-09T00:31:56;95191.38;;;3.12;59.16
16793;BME280;8513;42.662;23.350;2023-01-09T00:34:22;95189.09;;;2.95;59.24
16793;BME280;8513;42.662;23.350;2023-01-09T00:36:48;95194.69;;;3.01;59.35
16793;BME280;8513;42.662;23.350;2023-01-09T00:39:14;95190.09;;;2.79;59.53
16793;BME280;8513;42.662;23.350;2023-01-09T00:41:43;95188.97;;;2.83;60.05
16793;BME280;8513;42.662;23.350;2023-01-09T00:44:25;95182.13;;;2.95;59.24
16793;BME280;8513;42.662;23.350;2023-01-09T00:46:56;95182.53;;;2.89;59.58
16793;BME280;8513;42.662;23.350;2023-01-09T00:49:23;95176.72;;;2.98;59.28
16793;BME280;8513;42.662;23.350;2023-01-09T00:51:50;95185.84;;;2.78;60.94
16793;BME280;8513;42.662;23.350;2023-01-09T00:54:18;95190.66;;;2.97;60.02
16793;BME280;8513;42.662;23.350;2023-01-09T00:56:43;95189.31;;;2.92;60.16
16793;BME280;8513;42.662;23.350;2023-01-09T00:59:09;95185.34;;;2.99;59.79
16793;BME280;8513;42.662;23.350;2023-01-09T01:01:34;95183.56;;;2.99;59.72
16793;BME280;8513;42.662;23.350;2023-01-09T01:04:00;95184.81;;;2.94;60.23
16793;BME280;8513;42.662;23.350;2023-01-09T01:06:45;95186.50;;;2.95;60.04
16793;BME280;8513;42.662;23.350;2023-01-09T01:09:29;95193.56;;;2.93;60.95
16793;BME280;8513;42.662;23.350;2023-01-09T01:11:55;95190.88;;;2.94;60.52
16793;BME280;8513;42.662;23.350;2023-01-09T01:14:20;95176.31;;;2.92;60.39
16793;BME280;8513;42.662;23.350;2023-01-09T01:16:45;95174.25;;;2.97;60.82
16793;BME280;8513;42.662;23.350;2023-01-09T01:19:11;95172.59;;;3.08;60.19
16793;BME280;8513;42.662;23.350;2023-01-09T01:21:36;95170.91;;;2.95;60.03
16793;BME280;8513;42.662;23.350;2023-01-09T01:24:02;95166.31;;;2.85;60.45
16793;BME280;8513;42.662;23.350;2023-01-09T01:26:27;95161.03;;;2.87;60.10
16793;BME280;8513;42.662;23.350;2023-01-09T01:28:53;95174.44;;;2.94;60.32
16793;BME280;8513;42.662;23.350;2023-01-09T01:31:18;95164.69;;;2.97;60.58
16793;BME280;8513;42.662;23.350;2023-01-09T01:33:44;95160.19;;;2.99;61.09
16793;BME280;8513;42.662;23.350;2023-01-09T01:36:09;95158.25;;;3.03;60.54
16793;BME280;8513;42.662;23.350;2023-01-09T01:38:35;95158.75;;;2.95;60.21
16793;BME280;8513;42.662;23.350;2023-01-09T01:41:01;95155.44;;;3.06;60.45
16793;BME280;8513;42.662;23.350;2023-01-09T01:43:27;95152.41;;;3.12;60.74
16793;BME280;8513;42.662;23.350;2023-01-09T01:45:52;95150.56;;;3.14;60.24
16793;BME280;8513;42.662;23.350;2023-01-09T01:48:24;95145.34;;;3.01;60.05
16793;BME280;8513;42.662;23.350;2023-01-09T01:50:56;95154.78;;;2.90;60.08
16793;BME280;8513;42.662;23.350;2023-01-09T01:53:27;95141.56;;;2.80;60.50
16793;BME280;8513;42.662;23.350;2023-01-09T01:58:49;95132.09;;;2.66;60.55
16793;BME280;8513;42.662;23.350;2023-01-09T02:01:17;95129.34;;;2.82;60.10
16793;BME280;8513;42.662;23.350;2023-01-09T02:03:43;95118.09;;;2.69;60.60
16793;BME280;8513;42.662;23.350;2023-01-09T02:06:10;95125.59;;;2.73;60.07
16793;BME280;8513;42.662;23.350;2023-01-09T02:08:36;95118.41;;;2.77;59.87
16793;BME280;8513;42.662;23.350;2023-01-09T02:11:03;95113.53;;;2.72;60.15
16793;BME280;8513;42.662;23.350;2023-01-09T02:13:29;95114.34;;;2.60;60.67
16793;BME280;8513;42.662;23.350;2023-01-09T02:18:50;95113.31;;;2.62;61.40
16793;BME280;8513;42.662;23.350;2023-01-09T02:24:24;95120.59;;;2.70;61.40
16793;BME280;8513;42.662;23.350;2023-01-09T02:33:04;95117.34;;;2.67;60.58
16793;BME280;8513;42.662;23.350;2023-01-09T02:35:48;95114.44;;;2.18;62.08
16793;BME280;8513;42.662;23.350;2023-01-09T02:38:34;95104.41;;;1.99;62.71
16793;BME280;8513;42.662;23.350;2023-01-09T02:41:35;95101.53;;;2.04;61.61
16793;BME280;8513;42.662;23.350;2023-01-09T02:44:28;95102.63;;;2.27;61.02
16793;BME280;8513;42.662;23.350;2023-01-09T02:47:07;95101.91;;;2.25;61.19
16793;BME280;8513;42.662;23.350;2023-01-09T02:49:59;95108.41;;;2.18;61.84
16793;BME280;8513;42.662;23.350;2023-01-09T02:52:36;95100.56;;;1.78;63.41
16793;BME280;8513;42.662;23.350;2023-01-09T02:55:42;95095.59;;;2.02;63.17
16793;BME280;8513;42.662;23.350;2023-01-09T02:58:30;95107.38;;;2.20;62.29
16793;BME280;8513;42.662;23.350;2023-01-09T03:09:19;95098.50;;;2.25;61.45
16793;BME280;8513;42.662;23.350;2023-01-09T03:14:49;95090.72;;;2.25;61.38
16793;BME280;8513;42.662;23.350;2023-01-09T03:17:23;95094.13;;;2.25;61.59
16793;BME280;8513;42.662;23.350;2023-01-09T03:19:52;95102.00;;;2.24;61.40
16793;BME280;8513;42.662;23.350;2023-01-09T03:22:18;95103.28;;;2.31;61.22
16793;BME280;8513;42.662;23.350;2023-01-09T03:24:44;95102.44;;;2.30;61.73
16793;BME280;8513;42.662;23.350;2023-01-09T03:27:10;95100.34;;;2.23;61.20
16793;BME280;8513;42.662;23.350;2023-01-09T03:29:35;95099.19;;;2.27;61.34
16793;BME280;8513;42.662;23.350;2023-01-09T03:32:02;95096.53;;;2.28;60.91
16793;BME280;8513;42.662;23.350;2023-01-09T03:34:27;95085.84;;;2.06;61.68
16793;BME280;8513;42.662;23.350;2023-01-09T03:36:53;95101.78;;;2.14;61.76
16793;BME280;8513;42.662;23.350;2023-01-09T03:39:18;95098.31;;;2.13;61.88
16793;BME280;8513;42.662;23.350;2023-01-09T03:41:43;95106.97;;;2.14;61.32
16793;BME280;8513;42.662;23.350;2023-01-09T03:44:09;95095.78;;;1.99;61.50
16793;BME280;8513;42.662;23.350;2023-01-09T03:46:34;95093.25;;;2.12;61.15
16793;BME280;8513;42.662;23.350;2023-01-09T03:49:00;95088.34;;;2.07;61.31
16793;BME280;8513;42.662;23.350;2023-01-09T03:51:25;95095.72;;;2.01;61.47
16793;BME280;8513;42.662;23.350;2023-01-09T03:53:51;95100.34;;;1.95;61.68
16793;BME280;8513;42.662;23.350;2023-01-09T03:56:16;95097.66;;;1.97;62.13
16793;BME280;8513;42.662;23.350;2023-01-09T03:58:42;95101.81;;;1.99;61.84
16793;BME280;8513;42.662;23.350;2023-01-09T04:01:07;95097.84;;;1.94;62.01
16793;BME280;8513;42.662;23.350;2023-01-09T04:03:36;95097.78;;;2.08;61.99
16793;BME280;8513;42.662;23.350;2023-01-09T04:06:02;95095.19;;;2.08;62.03
16793;BME280;8513;42.662;23.350;2023-01-09T04:08:27;95092.56;;;1.95;62.19
16793;BME280;8513;42.662;23.350;2023-01-09T04:10:53;95096.00;;;1.96;62.39
16793;BME280;8513;42.662;23.350;2023-01-09T04:13:18;95103.19;;;2.05;62.07
16793;BME280;8513;42.662;23.350;2023-01-09T04:15:44;95098.38;;;1.99;61.92
16793;BME280;8513;42.662;23.350;2023-01-09T04:18:09;95087.94;;;2.01;61.61
16793;BME280;8513;42.662;23.350;2023-01-09T04:20:35;95096.28;;;1.91;62.05
16793;BME280;8513;42.662;23.350;2023-01-09T04:23:00;95082.84;;;1.99;62.00
16793;BME280;8513;42.662;23.350;2023-01-09T04:25:26;95092.19;;;2.02;61.78
16793;BME280;8513;42.662;23.350;2023-01-09T04:27:52;95091.91;;;1.65;62.98
16793;BME280;8513;42.662;23.350;2023-01-09T04:30:17;95087.81;;;1.75;62.24
16793;BME280;8513;42.662;23.350;2023-01-09T04:32:42;95084.38;;;1.74;62.63
16793;BME280;8513;42.662;23.350;2023-01-09T04:35:08;95088.09;;;1.70;62.29
16793;BME280;8513;42.662;23.350;2023-01-09T04:37:34;95087.63;;;1.78;62.23
16793;BME280;8513;42.662;23.350;2023-01-09T04:40:02;95088.91;;;1.71;61.99
16793;BME280;8513;42.662;23.350;2023-01-09T04:42:32;95085.47;;;1.85;61.83
16793;BME280;8513;42.662;23.350;2023-01-09T04:44:57;95075.28;;;1.82;61.86
16793;BME280;8513;42.662;23.350;2023-01-09T04:47:23;95070.50;;;1.75;61.61
16793;BME280;8513;42.662;23.350;2023-01-09T04:49:48;95069.03;;;1.71;62.18
16793;BME280;8513;42.662;23.350;2023-01-09T04:52:14;95081.81;;;1.60;62.63
16793;BME280;8513;42.662;23.350;2023-01-09T04:54:39;95074.38;;;1.68;62.71
16793;BME280;8513;42.662;23.350;2023-01-09T04:57:05;95068.84;;;1.74;62.10
16793;BME280;8513;42.662;23.350;2023-01-09T04:59:30;95076.31;;;1.79;62.31
16793;BME280;8513;42.662;23.350;2023-01-09T05:01:56;95059.56;;;1.70;62.26
16793;BME280;8513;42.662;23.350;2023-01-09T05:04:23;95072.66;;;1.69;62.46
16793;BME280;8513;42.662;23.350;2023-01-09T05:06:48;95063.59;;;1.62;62.54
16793;BME280;8513;42.662;23.350;2023-01-09T05:09:14;95069.78;;;1.59;62.35
16793;BME280;8513;42.662;23.350;2023-01-09T05:11:39;95066.03;;;1.50;63.43
16793;BME280;8513;42.662;23.350;2023-01-09T05:14:05;95068.16;;;1.58;62.84
16793;BME280;8513;42.662;23.350;2023-01-09T05:16:30;95074.84;;;1.75;62.14
16793;BME280;8513;42.662;23.350;2023-01-09T05:18:56;95077.16;;;1.80;62.07
16793;BME280;8513;42.662;23.350;2023-01-09T05:21:23;95075.47;;;1.79;62.31
16793;BME280;8513;42.662;23.350;2023-01-09T05:23:48;95086.03;;;1.75;62.14
16793;BME280;8513;42.662;23.350;2023-01-09T05:26:14;95087.66;;;1.64;62.52
16793;BME280;8513;42.662;23.350;2023-01-09T05:28:39;95085.28;;;1.46;63.31
16793;BME280;8513;42.662;23.350;2023-01-09T05:31:05;95094.47;;;1.23;63.96
16793;BME280;8513;42.662;23.350;2023-01-09T05:33:30;95096.94;;;1.25;63.50
16793;BME280;8513;42.662;23.350;2023-01-09T05:35:56;95075.72;;;1.47;62.70
16793;BME280;8513;42.662;23.350;2023-01-09T05:38:21;95084.25;;;1.63;62.77
16793;BME280;8513;42.662;23.350;2023-01-09T05:40:47;95068.78;;;1.62;62.88
16793;BME280;8513;42.662;23.350;2023-01-09T05:43:12;95074.78;;;1.62;63.10
16793;BME280;8513;42.662;23.350;2023-01-09T05:45:37;95073.56;;;1.68;63.32
16793;BME280;8513;42.662;23.350;2023-01-09T05:48:03;95076.81;;;1.71;63.11
16793;BME280;8513;42.662;23.350;2023-01-09T05:50:28;95066.53;;;1.70;63.11
16793;BME280;8513;42.662;23.350;2023-01-09T05:52:54;95063.75;;;1.73;62.88
16793;BME280;8513;42.662;23.350;2023-01-09T05:55:19;95053.09;;;1.77;62.89
16793;BME280;8513;42.662;23.350;2023-01-09T05:57:45;95064.03;;;1.68;63.40
16793;BME280;8513;42.662;23.350;2023-01-09T06:00:10;95062.84;;;1.87;62.83
16793;BME280;8513;42.662;23.350;2023-01-09T06:02:36;95056.97;;;1.85;63.11
16793;BME280;8513;42.662;23.350;2023-01-09T06:05:02;95056.22;;;1.83;63.50
16793;BME280;8513;42.662;23.350;2023-01-09T06:07:27;95070.63;;;1.87;63.47
16793;BME280;8513;42.662;23.350;2023-01-09T06:09:52;95062.22;;;1.83;63.11
16793;BME280;8513;42.662;23.350;2023-01-09T06:12:18;95057.03;;;1.83;62.98
16793;BME280;8513;42.662;23.350;2023-01-09T06:14:44;95067.56;;;1.94;62.94
16793;BME280;8513;42.662;23.350;2023-01-09T06:17:09;95064.34;;;1.91;62.69
16793;BME280;8513;42.662;23.350;2023-01-09T06:19:35;95057.81;;;1.71;62.68
16793;BME280;8513;42.662;23.350;2023-01-09T06:22:01;95067.34;;;1.70;63.20
16793;BME280;8513;42.662;23.350;2023-01-09T06:24:26;95065.06;;;1.66;63.46
16793;BME280;8513;42.662;23.350;2023-01-09T06:26:51;95052.81;;;1.68;63.33
16793;BME280;8513;42.662;23.350;2023-01-09T06:29:17;95060.75;;;1.79;63.26
16793;BME280;8513;42.662;23.350;2023-01-09T06:31:42;95056.75;;;1.88;63.00
16793;BME280;8513;42.662;23.350;2023-01-09T06:34:08;95048.38;;;1.97;62.76
16793;BME280;8513;42.662;23.350;2023-01-09T06:36:33;95053.16;;;2.03;62.39
16793;BME280;8513;42.662;23.350;2023-01-09T06:38:59;95054.09;;;2.02;62.64
16793;BME280;8513;42.662;23.350;2023-01-09T06:41:25;95048.84;;;2.16;62.32
16793;BME280;8513;42.662;23.350;2023-01-09T06:43:50;95050.84;;;2.26;62.36
16793;BME280;8513;42.662;23.350;2023-01-09T06:46:16;95044.91;;;2.24;62.49
16793;BME280;8513;42.662;23.350;2023-01-09T06:48:41;95054.72;;;2.33;62.11
16793;BME280;8513;42.662;23.350;2023-01-09T06:51:07;95057.94;;;2.36;62.16
16793;BME280;8513;42.662;23.350;2023-01-09T06:53:32;95055.34;;;2.36;62.08
16793;BME280;8513;42.662;23.350;2023-01-09T06:55:59;95051.34;;;2.18;62.58
16793;BME280;8513;42.662;23.350;2023-01-09T06:58:26;95055.94;;;2.40;62.37
16793;BME280;8513;42.662;23.350;2023-01-09T07:00:51;95058.88;;;2.48;62.05
16793;BME280;8513;42.662;23.350;2023-01-09T07:03:17;95052.44;;;2.54;62.10
16793;BME280;8513;42.662;23.350;2023-01-09T07:05:47;95054.44;;;2.63;61.65
16793;BME280;8513;42.662;23.350;2023-01-09T07:08:13;95050.81;;;2.65;61.64
16793;BME280;8513;42.662;23.350;2023-01-09T07:10:40;95046.00;;;2.72;61.61
16793;BME280;8513;42.662;23.350;2023-01-09T07:13:05;95050.69;;;2.80;61.19
16793;BME280;8513;42.662;23.350;2023-01-09T07:15:31;95055.06;;;2.79;61.09
16793;BME280;8513;42.662;23.350;2023-01-09T07:17:56;95039.78;;;2.75;61.69
16793;BME280;8513;42.662;23.350;2023-01-09T07:20:22;95045.19;;;2.84;61.50
16793;BME280;8513;42.662;23.350;2023-01-09T07:22:47;95046.13;;;2.96;60.96
16793;BME280;8513;42.662;23.350;2023-01-09T07:25:13;95051.22;;;3.11;60.87
16793;BME280;8513;42.662;23.350;2023-01-09T07:27:38;95044.63;;;3.18;60.82
16793;BME280;8513;42.662;23.350;2023-01-09T07:30:05;95047.44;;;3.27;60.83
16793;BME280;8513;42.662;23.350;2023-01-09T07:32:31;95049.00;;;3.30;60.70
16793;BME280;8513;42.662;23.350;2023-01-09T07:34:57;95040.38;;;3.29;61.10
16793;BME280;8513;42.662;23.350;2023-01-09T07:37:23;95043.84;;;2.92;62.64
16793;BME280;8513;42.662;23.350;2023-01-09T07:39:49;95047.34;;;3.29;61.78
16793;BME280;8513;42.662;23.350;2023-01-09T07:42:15;95053.00;;;3.47;60.95
16793;BME280;8513;42.662;23.350;2023-01-09T07:44:40;95048.19;;;3.66;60.81
16793;BME280;8513;42.662;23.350;2023-01-09T07:47:06;95048.78;;;3.70;60.54
16793;BME280;8513;42.662;23.350;2023-01-09T07:49:31;95044.59;;;3.80;60.76
16793;BME280;8513;42.662;23.350;2023-01-09T07:51:57;95065.69;;;3.88;60.65
16793;BME280;8513;42.662;23.350;2023-01-09T07:54:22;95068.25;;;4.01;60.47
16793;BME280;8513;42.662;23.350;2023-01-09T07:56:48;95065.34;;;4.17;60.00
16793;BME280;8513;42.662;23.350;2023-01-09T07:59:14;95064.94;;;4.34;59.74
16793;BME280;8513;42.662;23.350;2023-01-09T08:01:39;95064.38;;;4.42;59.90
16793;BME280;8513;42.662;23.350;2023-01-09T08:04:05;95064.53;;;4.52;59.94
16793;BME280;8513;42.662;23.350;2023-01-09T08:06:30;95075.59;;;4.78;59.35
16793;BME280;8513;42.662;23.350;2023-01-09T08:08:56;95068.16;;;4.84;59.41
16793;BME280;8513;42.662;23.350;2023-01-09T08:11:22;95070.31;;;5.02;59.61
16793;BME280;8513;42.662;23.350;2023-01-09T08:13:47;95073.88;;;5.12;59.22
16793;BME280;8513;42.662;23.350;2023-01-09T08:16:13;95074.03;;;5.11;59.64
16793;BME280;8513;42.662;23.350;2023-01-09T08:18:38;95066.53;;;5.06;59.11
16793;BME280;8513;42.662;23.350;2023-01-09T08:21:04;95067.47;;;5.05;60.05
16793;BME280;8513;42.662;23.350;2023-01-09T08:23:29;95069.38;;;5.14;59.25
16793;BME280;8513;42.662;23.350;2023-01-09T08:25:55;95067.38;;;5.06;59.84
16793;BME280;8513;42.662;23.350;2023-01-09T08:28:20;95060.25;;;5.20;59.61
16793;BME280;8513;42.662;23.350;2023-01-09T08:30:46;95063.34;;;5.36;59.43
16793;BME280;8513;42.662;23.350;2023-01-09T08:33:11;95074.75;;;5.24;60.60
16793;BME280;8513;42.662;23.350;2023-01-09T08:35:37;95064.53;;;5.43;60.09
16793;BME280;8513;42.662;23.350;2023-01-09T08:38:02;95060.38;;;5.52;59.53
16793;BME280;8513;42.662;23.350;2023-01-09T08:40:28;95068.06;;;5.65;59.61
16793;BME280;8513;42.662;23.350;2023-01-09T08:42:54;95060.81;;;5.80;59.26
16793;BME280;8513;42.662;23.350;2023-01-09T08:45:37;95060.66;;;5.92;59.08
16793;BME280;8513;42.662;23.350;2023-01-09T08:48:21;95056.75;;;5.87;59.22
16793;BME280;8513;42.662;23.350;2023-01-09T08:50:47;95059.84;;;5.92;58.91
16793;BME280;8513;42.662;23.350;2023-01-09T08:53:12;95050.34;;;6.02;58.98
16793;BME280;8513;42.662;23.350;2023-01-09T08:55:39;95061.94;;;6.21;59.00
16793;BME280;8513;42.662;23.350;2023-01-09T08:58:05;95057.50;;;6.32;57.84
16793;BME280;8513;42.662;23.350;2023-01-09T09:00:30;95046.78;;;6.35;57.65
16793;BME280;8513;42.662;23.350;2023-01-09T09:02:57;95034.25;;;6.29;58.53
16793;BME280;8513;42.662;23.350;2023-01-09T09:05:24;95034.75;;;6.44;58.08
16793;BME280;8513;42.662;23.350;2023-01-09T09:07:51;95025.91;;;6.56;57.49
16793;BME280;8513;42.662;23.350;2023-01-09T09:10:21;95025.72;;;6.48;57.58
16793;BME280;8513;42.662;23.350;2023-01-09T09:12:47;95032.41;;;6.62;57.33
16793;BME280;8513;42.662;23.350;2023-01-09T09:15:13;95019.78;;;6.67;57.07
16793;BME280;8513;42.662;23.350;2023-01-09T09:17:52;95014.06;;;6.73;56.69
16793;BME280;8513;42.662;23.350;2023-01-09T09:20:21;95008.00;;;6.73;56.94
16793;BME280;8513;42.662;23.350;2023-01-09T09:22:47;95007.38;;;6.80;57.04
16793;BME280;8513;42.662;23.350;2023-01-09T09:25:14;95006.63;;;6.69;57.24
16793;BME280;8513;42.662;23.350;2023-01-09T09:27:39;94997.91;;;6.89;56.78
16793;BME280;8513;42.662;23.350;2023-01-09T09:30:06;94995.78;;;7.04;56.09
16793;BME280;8513;42.662;23.350;2023-01-09T09:32:31;94995.84;;;7.14;56.47
16793;BME280;8513;42.662;23.350;2023-01-09T09:34:57;94979.56;;;7.10;56.31
16793;BME280;8513;42.662;23.350;2023-01-09T09:37:23;94974.66;;;7.17;56.38
16793;BME280;8513;42.662;23.350;2023-01-09T09:39:48;94986.44;;;7.42;55.80
16793;BME280;8513;42.662;23.350;2023-01-09T09:55:41;94929.63;;;7.83;54.59
16793;BME280;8513;42.662;23.350;2023-01-09T09:58:21;94923.44;;;7.84;53.50
16793;BME280;8513;42.662;23.350;2023-01-09T10:00:50;94916.28;;;7.86;53.30
16793;BME280;8513;42.662;23.350;2023-01-09T10:03:40;94907.72;;;7.93;53.30
16793;BME280;8513;42.662;23.350;2023-01-09T10:08:54;94883.88;;;8.06;53.01
16793;BME280;8513;42.662;23.350;2023-01-09T10:11:38;94862.34;;;8.12;53.46
16793;BME280;8513;42.662;23.350;2023-01-09T10:14:09;94861.81;;;8.09;53.71
16793;BME280;8513;42.662;23.350;2023-01-09T10:37:53;94830.34;;;8.75;52.52
16793;BME280;8513;42.662;23.350;2023-01-09T10:40:33;94840.25;;;9.09;51.34
16793;BME280;8513;42.662;23.350;2023-01-09T10:43:08;94827.88;;;9.19;50.78
16793;BME280;8513;42.662;23.350;2023-01-09T10:46:00;94815.66;;;9.10;50.32
16793;BME280;8513;42.662;23.350;2023-01-09T10:48:29;94810.72;;;9.07;50.46
16793;BME280;8513;42.662;23.350;2023-01-09T10:50:56;94807.41;;;9.05;51.69
16793;BME280;8513;42.662;23.350;2023-01-09T10:56:00;94806.69;;;9.48;49.66
16793;BME280;8513;42.662;23.350;2023-01-09T10:58:29;94797.31;;;9.64;49.15
16793;BME280;8513;42.662;23.350;2023-01-09T11:00:55;94786.06;;;9.71;49.25
16793;BME280;8513;42.662;23.350;2023-01-09T11:03:26;94773.34;;;9.85;48.82
16793;BME280;8513;42.662;23.350;2023-01-09T11:05:55;94767.97;;;9.86;48.92
16793;BME280;8513;42.662;23.350;2023-01-09T11:08:35;94771.34;;;10.05;48.40
16793;BME280;8513;42.662;23.350;2023-01-09T11:11:04;94768.25;;;10.27;48.07
16793;BME280;8513;42.662;23.350;2023-01-09T11:13:31;94756.56;;;9.78;48.84
16793;BME280;8513;42.662;23.350;2023-01-09T11:18:40;94763.88;;;10.44;47.23
16793;BME280;8513;42.662;23.350;2023-01-09T11:23:54;94760.59;;;10.42;47.13
16793;BME280;8513;42.662;23.350;2023-01-09T11:26:48;94762.13;;;10.01;47.83
16793;BME280;8513;42.662;23.350;2023-01-09T11:29:15;94756.44;;;10.05;47.91
16793;BME280;8513;42.662;23.350;2023-01-09T11:31:42;94758.41;;;9.85;48.70
16793;BME280;8513;42.662;23.350;2023-01-09T11:34:16;94751.72;;;9.91;48.39
16793;BME280;8513;42.662;23.350;2023-01-09T11:36:42;94758.34;;;9.95;48.08
16793;BME280;8513;42.662;23.350;2023-01-09T11:39:21;94745.78;;;9.89;48.42
16793;BME280;8513;42.662;23.350;2023-01-09T11:41:55;94742.03;;;9.91;48.19
16793;BME280;8513;42.662;23.350;2023-01-09T11:44:23;94739.28;;;9.93;48.51
16793;BME280;8513;42.662;23.350;2023-01-09T11:46:49;94739.16;;;9.77;48.42
16793;BME280;8513;42.662;23.350;2023-01-09T11:51:44;94732.44;;;10.00;48.64
16793;BME280;8513;42.662;23.350;2023-01-09T11:54:27;94735.41;;;10.05;48.29
16793;BME280;8513;42.662;23.350;2023-01-09T11:56:54;94733.84;;;9.68;48.83
16793;BME280;8513;42.662;23.350;2023-01-09T11:59:23;94737.09;;;9.62;48.81
16793;BME280;8513;42.662;23.350;2023-01-09T12:13:08;94720.22;;;10.51;46.62
16793;BME280;8513;42.662;23.350;2023-01-09T12:16:20;94706.53;;;10.05;47.54
16793;BME280;8513;42.662;23.350;2023-01-09T12:27:24;94695.09;;;10.57;46.89
16793;BME280;8513;42.662;23.350;2023-01-09T12:49:29;94670.38;;;11.00;44.91
16793;BME280;8513;42.662;23.350;2023-01-09T12:52:25;94664.22;;;10.59;45.92
16793;BME280;8513;42.662;23.350;2023-01-09T12:54:57;94660.13;;;10.73;45.92
16793;BME280;8513;42.662;23.350;2023-01-09T12:57:39;94658.00;;;10.76;45.82
16793;BME280;8513;42.662;23.350;2023-01-09T13:00:31;94662.63;;;10.82;45.41
16793;BME280;8513;42.662;23.350;2023-01-09T13:05:46;94645.63;;;10.60;45.92
16793;BME280;8513;42.662;23.350;2023-01-09T13:11:26;94646.72;;;9.99;48.00
16793;BME280;8513;42.662;23.350;2023-01-09T13:14:10;94640.03;;;9.70;48.25
16793;BME280;8513;42.662;23.350;2023-01-09T13:16:42;94633.94;;;9.44;49.06
16793;BME280;8513;42.662;23.350;2023-01-09T13:19:27;94643.56;;;9.61;48.58
16793;BME280;8513;42.662;23.350;2023-01-09T13:21:57;94649.78;;;9.86;48.04
16793;BME280;8513;42.662;23.350;2023-01-09T13:24:29;94654.69;;;9.81;48.33
16793;BME280;8513;42.662;23.350;2023-01-09T13:27:01;94645.84;;;9.90;47.96
16793;BME280;8513;42.662;23.350;2023-01-09T13:29:31;94627.00;;;9.95;47.78
16793;BME280;8513;42.662;23.350;2023-01-09T13:32:18;94629.28;;;9.90;47.96
16793;BME280;8513;42.662;23.350;2023-01-09T13:34:51;94617.56;;;9.50;48.92
16793;BME280;8513;42.662;23.350;2023-01-09T13:39:58;94641.03;;;9.78;48.33
16793;BME280;8513;42.662;23.350;2023-01-09T13:42:24;94634.88;;;9.61;48.27
16793;BME280;8513;42.662;23.350;2023-01-09T13:45:20;94626.00;;;9.62;48.85
16793;BME280;8513;42.662;23.350;2023-01-09T13:50:45;94619.50;;;9.22;50.22
16793;BME280;8513;42.662;23.350;2023-01-09T13:56:15;94618.91;;;9.28;49.91
16793;BME280;8513;42.662;23.350;2023-01-09T13:59:00;94622.00;;;9.49;49.05
16793;BME280;8513;42.662;23.350;2023-01-09T14:06:34;94641.88;;;9.52;48.98
16793;BME280;8513;42.662;23.350;2023-01-09T14:09:22;94635.31;;;9.56;48.77
16793;BME280;8513;42.662;23.350;2023-01-09T14:12:01;94622.59;;;9.43;49.42
16793;BME280;8513;42.662;23.350;2023-01-09T14:14:30;94635.94;;;9.06;50.04
16793;BME280;8513;42.662;23.350;2023-01-09T14:16:58;94622.50;;;9.27;49.51
16793;BME280;8513;42.662;23.350;2023-01-09T14:19:31;94621.94;;;9.15;49.73
16793;BME280;8513;42.662;23.350;2023-01-09T14:21:58;94604.69;;;9.13;49.56
16793;BME280;8513;42.662;23.350;2023-01-09T14:24:28;94616.03;;;8.95;50.10
16793;BME280;8513;42.662;23.350;2023-01-09T14:26:57;94609.38;;;9.01;50.00
16793;BME280;8513;42.662;23.350;2023-01-09T14:29:43;94606.84;;;8.73;50.75
16793;BME280;8513;42.662;23.350;2023-01-09T14:37:33;94575.84;;;8.05;52.91
16793;BME280;8513;42.662;23.350;2023-01-09T14:39:59;94587.66;;;8.37;52.07
16793;BME280;8513;42.662;23.350;2023-01-09T14:42:28;94588.78;;;8.34;51.96
16793;BME280;8513;42.662;23.350;2023-01-09T14:45:13;94598.69;;;8.41;51.97
16793;BME280;8513;42.662;23.350;2023-01-09T14:47:43;94598.88;;;8.47;51.62
16793;BME280;8513;42.662;23.350;2023-01-09T14:50:31;94591.06;;;8.20;52.23
16793;BME280;8513;42.662;23.350;2023-01-09T14:53:06;94590.16;;;8.11;52.72
16793;BME280;8513;42.662;23.350;2023-01-09T14:58:19;94579.66;;;7.56;53.94
16793;BME280;8513;42.662;23.350;2023-01-09T15:00:51;94585.16;;;7.62;54.22
16793;BME280;8513;42.662;23.350;2023-01-09T15:03:19;94574.84;;;7.61;54.13
16793;BME280;8513;42.662;23.350;2023-01-09T15:05:45;94564.69;;;7.48;54.29
16793;BME280;8513;42.662;23.350;2023-01-09T15:08:19;94564.38;;;7.61;53.83
16793;BME280;8513;42.662;23.350;2023-01-09T15:10:47;94572.66;;;7.84;53.13
16793;BME280;8513;42.662;23.350;2023-01-09T15:13:25;94570.31;;;7.16;54.84
16793;BME280;8513;42.662;23.350;2023-01-09T15:15:52;94578.19;;;7.06;55.51
16793;BME280;8513;42.662;23.350;2023-01-09T15:18:24;94567.81;;;7.24;55.32
16793;BME280;8513;42.662;23.350;2023-01-09T15:20:55;94557.53;;;7.13;55.20
16793;BME280;8513;42.662;23.350;2023-01-09T15:23:25;94545.03;;;6.97;55.93
16793;BME280;8513;42.662;23.350;2023-01-09T15:25:53;94549.22;;;6.80;56.56
16793;BME280;8513;42.662;23.350;2023-01-09T15:28:28;94551.53;;;6.83;56.68
16793;BME280;8513;42.662;23.350;2023-01-09T15:31:13;94557.97;;;6.98;56.14
16793;BME280;8513;42.662;23.350;2023-01-09T15:33:41;94554.66;;;7.06;55.94
16793;BME280;8513;42.662;23.350;2023-01-09T15:36:20;94536.50;;;6.95;56.28
16793;BME280;8513;42.662;23.350;2023-01-09T15:38:48;94554.56;;;6.88;56.17
16793;BME280;8513;42.662;23.350;2023-01-09T15:41:23;94555.25;;;6.90;56.31